Time;durP1;ratioP1;P1;durP2;ratioP2;P2;SDS_P1;SDS_P2;PMS_P1;PMS_P2;Temp;Humidity;BMP_temperature;BMP_pressure;BME280_temperature;BME280_humidity;BME280_pressure;Samples;Min_cycle;Max_cycle;Signal;HPM_P1;HPM_P2
2023/07/17 00:01:43;;;;;;;6.32;3.70;;;29.00;52.80;;;;;;5114226;28;20377;-75
2023/07/17 00:04:08;;;;;;;3.90;3.35;;;29.00;52.80;;;;;;5114164;28;20068;-76
2023/07/17 00:06:35;;;;;;;5.45;4.00;;;28.90;52.30;;;;;;5114098;28;20081;-75
2023/07/17 00:09:01;;;;;;;3.40;3.10;;;29.00;52.80;;;;;;5113984;28;20035;-75
2023/07/17 00:11:27;;;;;;;4.40;3.97;;;29.10;52.90;;;;;;5113887;28;20046;-76
2023/07/17 00:13:54;;;;;;;8.82;3.47;;;29.10;52.90;;;;;;5113408;28;20439;-75
2023/07/17 00:16:20;;;;;;;3.55;3.20;;;28.90;52.30;;;;;;5112427;28;20019;-76
2023/07/17 00:18:46;;;;;;;4.43;3.53;;;29.10;52.80;;;;;;5114052;28;20063;-75
2023/07/17 00:21:12;;;;;;;4.53;3.38;;;28.90;52.30;;;;;;5113448;28;20493;-75
2023/07/17 00:23:38;;;;;;;5.20;3.28;;;29.10;52.90;;;;;;5113410;28;20071;-75
2023/07/17 00:26:04;;;;;;;4.47;3.50;;;29.10;53.00;;;;;;5113503;28;20392;-75
2023/07/17 00:28:30;;;;;;;3.80;3.25;;;28.90;52.40;;;;;;5113407;28;20042;-75
2023/07/17 00:30:59;;;;;;;5.20;3.53;;;29.10;53.00;;;;;;5113832;28;20051;-76
2023/07/17 00:33:25;;;;;;;5.55;3.97;;;29.10;53.00;;;;;;5112998;28;20048;-76
2023/07/17 00:35:51;;;;;;;4.55;3.03;;;29.00;53.00;;;;;;5112151;28;20027;-75
2023/07/17 00:38:18;;;;;;;7.35;3.70;;;29.00;53.10;;;;;;5113613;28;20104;-75
2023/07/17 00:40:44;;;;;;;6.45;3.58;;;29.00;53.00;;;;;;5112211;28;20068;-76
2023/07/17 00:43:11;;;;;;;8.55;3.60;;;29.00;53.10;;;;;;5113014;27;20039;-75
2023/07/17 00:45:40;;;;;;;3.90;3.35;;;29.10;53.10;;;;;;5095034;28;20047;-75
2023/07/17 00:48:06;;;;;;;8.45;3.53;;;29.10;53.10;;;;;;5111821;28;20042;-76
2023/07/17 00:50:33;;;;;;;6.05;3.78;;;29.10;53.10;;;;;;5112070;28;20043;-75
2023/07/17 00:52:59;;;;;;;3.60;3.20;;;29.10;53.10;;;;;;5093582;28;20058;-75
2023/07/17 00:55:25;;;;;;;3.40;3.10;;;29.10;53.10;;;;;;5110544;28;20052;-75
2023/07/17 00:57:52;;;;;;;7.18;3.45;;;29.00;53.10;;;;;;5110605;28;20150;-75
2023/07/17 01:00:19;;;;;;;5.47;3.13;;;29.00;53.00;;;;;;5059674;28;20141;-75
2023/07/17 01:02:45;;;;;;;5.55;3.47;;;29.10;53.10;;;;;;5075673;28;20035;-75
2023/07/17 01:05:11;;;;;;;3.47;3.17;;;29.10;53.10;;;;;;5093402;28;20081;-75
2023/07/17 01:07:39;;;;;;;4.90;3.30;;;29.00;53.00;;;;;;5093409;28;20043;-76
2023/07/17 01:10:06;;;;;;;5.15;3.50;;;28.90;52.50;;;;;;5110328;28;20107;-76
2023/07/17 01:12:35;;;;;;;5.15;2.85;;;29.00;53.10;;;;;;5092944;28;20140;-75
2023/07/17 01:15:03;;;;;;;3.55;2.78;;;29.20;53.20;;;;;;5110244;28;20073;-76
2023/07/17 01:17:30;;;;;;;6.55;3.30;;;28.90;52.70;;;;;;5093725;28;20073;-75
2023/07/17 01:19:57;;;;;;;4.28;3.33;;;28.90;52.70;;;;;;5110217;28;20043;-76
2023/07/17 01:22:28;;;;;;;7.82;3.40;;;29.00;53.30;;;;;;5093022;28;20043;-76
2023/07/17 01:24:54;;;;;;;4.97;2.90;;;28.90;52.70;;;;;;5112011;28;20506;-75
2023/07/17 01:27:20;;;;;;;5.95;2.85;;;29.00;53.30;;;;;;5112566;28;20066;-76
2023/07/17 01:29:46;;;;;;;8.02;2.75;;;29.00;53.30;;;;;;5112539;28;20055;-75
2023/07/17 01:32:12;;;;;;;4.05;2.80;;;29.10;53.40;;;;;;5112121;28;20506;-75
2023/07/17 01:34:38;;;;;;;5.57;3.38;;;29.00;53.40;;;;;;5111038;28;20067;-75
2023/07/17 01:37:10;;;;;;;4.10;3.15;;;29.00;53.50;;;;;;5112325;28;20032;-76
2023/07/17 01:39:36;;;;;;;3.90;2.85;;;29.00;53.40;;;;;;5111200;28;20036;-76
2023/07/17 01:42:03;;;;;;;4.25;3.05;;;29.00;53.40;;;;;;5112243;28;20088;-74
2023/07/17 01:44:30;;;;;;;5.28;3.20;;;29.10;53.40;;;;;;5111093;28;20039;-76
2023/07/17 01:46:56;;;;;;;3.58;3.08;;;29.00;53.40;;;;;;5093705;28;20053;-75
2023/07/17 01:49:22;;;;;;;4.68;3.22;;;29.00;53.40;;;;;;5110587;28;20065;-76
2023/07/17 01:51:48;;;;;;;7.20;3.20;;;29.00;53.40;;;;;;5093719;28;20527;-76
2023/07/17 01:54:15;;;;;;;4.22;3.15;;;29.00;53.40;;;;;;5111636;28;20105;-76
2023/07/17 01:56:43;;;;;;;3.65;3.00;;;29.10;53.40;;;;;;5093971;28;20046;-75
2023/07/17 01:59:09;;;;;;;6.70;3.00;;;29.00;53.40;;;;;;5110541;28;20157;-76
2023/07/17 02:01:35;;;;;;;3.85;2.85;;;28.90;52.90;;;;;;5111148;28;20122;-75
2023/07/17 02:04:01;;;;;;;7.25;3.42;;;29.00;53.50;;;;;;5110604;28;20398;-76
2023/07/17 02:06:28;;;;;;;6.82;2.80;;;29.00;53.40;;;;;;5111883;28;20027;-75
2023/07/17 02:08:54;;;;;;;3.63;3.13;;;28.90;52.90;;;;;;5093580;28;20054;-76
2023/07/17 02:11:26;;;;;;;8.18;3.28;;;29.10;53.50;;;;;;5110391;28;20048;-76
2023/07/17 02:13:54;;;;;;;4.13;2.78;;;28.90;53.00;;;;;;5111591;28;20501;-75
2023/07/17 02:16:20;;;;;;;3.72;3.00;;;28.90;53.00;;;;;;5110390;28;20024;-76
2023/07/17 02:18:45;;;;;;;3.17;2.88;;;28.80;53.10;;;;;;5111761;28;20391;-76
2023/07/17 02:21:11;;;;;;;3.60;3.10;;;29.00;53.70;;;;;;5110597;28;20092;-76
2023/07/17 02:23:37;;;;;;;4.32;3.05;;;28.90;53.10;;;;;;5110268;28;20032;-75
2023/07/17 02:26:06;;;;;;;5.15;3.42;;;28.90;53.10;;;;;;5110423;28;20502;-76
2023/07/17 02:28:33;;;;;;;2.92;2.63;;;28.80;53.20;;;;;;5110584;28;20088;-75
2023/07/17 02:30:59;;;;;;;4.20;2.97;;;28.90;53.20;;;;;;5111510;28;20429;-76
2023/07/17 02:33:25;;;;;;;4.68;2.92;;;28.90;53.20;;;;;;5093328;28;20067;-76
2023/07/17 02:35:51;;;;;;;3.00;2.60;;;28.90;53.20;;;;;;5111638;28;20031;-75
2023/07/17 02:38:17;;;;;;;4.30;3.10;;;28.90;53.20;;;;;;5111446;28;20035;-76
2023/07/17 02:40:43;;;;;;;4.07;2.80;;;28.80;53.30;;;;;;5111439;28;20185;-76
2023/07/17 02:43:09;;;;;;;4.72;2.75;;;28.90;53.30;;;;;;5111239;28;20063;-75
2023/07/17 02:45:36;;;;;;;3.53;3.00;;;29.00;53.90;;;;;;5109965;28;20135;-76
2023/07/17 02:48:04;;;;;;;4.25;3.20;;;29.00;53.90;;;;;;5109901;28;20069;-75
2023/07/17 02:50:31;;;;;;;5.15;3.45;;;29.00;53.80;;;;;;5093394;28;20479;-76
2023/07/17 02:52:57;;;;;;;10.95;3.70;;;28.90;53.30;;;;;;5111198;28;20035;-75
2023/07/17 02:55:23;;;;;;;7.65;3.00;;;29.00;53.80;;;;;;5110016;28;20039;-75
2023/07/17 02:57:50;;;;;;;3.40;2.90;;;28.90;53.40;;;;;;5110094;28;20036;-76
2023/07/17 03:00:17;;;;;;;6.05;2.88;;;29.00;53.80;;;;;;5110239;28;20091;-75
2023/07/17 03:02:45;;;;;;;3.03;2.47;;;29.00;53.80;;;;;;5111243;28;20038;-76
2023/07/17 03:05:12;;;;;;;4.28;2.90;;;29.00;53.80;;;;;;5111350;28;20034;-76
2023/07/17 03:07:44;;;;;;;6.53;3.20;;;29.00;53.80;;;;;;5111248;28;20076;-76
2023/07/17 03:10:12;;;;;;;8.70;2.97;;;28.90;53.30;;;;;;5110013;28;20043;-76
2023/07/17 03:12:38;;;;;;;10.40;3.00;;;28.90;53.40;;;;;;5111354;28;20063;-75
2023/07/17 03:15:05;;;;;;;5.10;2.95;;;28.80;53.50;;;;;;5109717;28;20031;-76
2023/07/17 03:17:32;;;;;;;3.60;3.25;;;29.00;54.00;;;;;;5109983;28;20417;-75
2023/07/17 03:19:59;;;;;;;4.55;2.90;;;28.90;53.50;;;;;;5109908;28;20487;-75
2023/07/17 03:22:26;;;;;;;3.42;2.85;;;28.90;53.40;;;;;;5109781;28;20387;-75
2023/07/17 03:24:53;;;;;;;4.43;3.22;;;28.90;53.50;;;;;;5112267;28;20040;-76
2023/07/17 03:27:20;;;;;;;3.72;2.65;;;28.90;53.50;;;;;;5113875;28;20027;-76
2023/07/17 03:29:48;;;;;;;4.65;2.60;;;29.00;54.00;;;;;;5113403;28;20035;-76
2023/07/17 03:32:14;;;;;;;4.60;2.90;;;28.90;53.50;;;;;;5095496;28;20060;-76
2023/07/17 03:34:41;;;;;;;3.28;2.90;;;29.00;54.00;;;;;;5113260;28;20031;-76
2023/07/17 03:37:08;;;;;;;3.30;3.00;;;29.00;54.10;;;;;;5113272;28;20403;-75
2023/07/17 03:39:34;;;;;;;4.25;2.67;;;28.90;53.50;;;;;;5114819;28;20118;-76
2023/07/17 03:42:00;;;;;;;3.13;2.83;;;28.80;53.50;;;;;;5114625;28;20106;-76
2023/07/17 03:44:26;;;;;;;7.28;3.30;;;29.00;54.10;;;;;;5114466;28;20571;-75
2023/07/17 03:46:52;;;;;;;3.40;2.80;;;29.00;54.10;;;;;;5112898;28;20488;-76
2023/07/17 03:49:19;;;;;;;3.17;2.92;;;29.00;53.90;;;;;;5112932;28;20038;-75
2023/07/17 03:51:47;;;;;;;3.28;2.97;;;29.00;54.00;;;;;;5113264;28;20147;-76
2023/07/17 03:54:13;;;;;;;2.75;2.40;;;29.00;54.10;;;;;;5113142;28;20364;-76
2023/07/17 03:56:40;;;;;;;6.18;2.97;;;28.80;53.50;;;;;;5112984;28;20043;-75
2023/07/17 03:59:06;;;;;;;4.13;2.63;;;28.80;53.50;;;;;;5095946;28;20032;-74
2023/07/17 04:01:32;;;;;;;2.83;2.47;;;28.90;53.50;;;;;;5113130;28;20030;-73
2023/07/17 04:03:59;;;;;;;4.05;2.72;;;28.80;53.40;;;;;;5095685;28;20380;-73
2023/07/17 04:06:25;;;;;;;2.67;2.47;;;28.90;53.40;;;;;;5095813;28;20061;-73
2023/07/17 04:08:51;;;;;;;2.92;2.65;;;28.80;53.30;;;;;;5112585;28;20035;-73
2023/07/17 04:11:17;;;;;;;5.78;2.95;;;29.00;53.50;;;;;;5112515;28;20467;-73
2023/07/17 04:13:47;;;;;;;2.88;2.65;;;28.80;52.70;;;;;;5112508;28;20127;-73
2023/07/17 04:16:16;;;;;;;3.47;3.00;;;28.80;52.50;;;;;;5095536;28;20506;-75
2023/07/17 04:18:42;;;;;;;3.25;2.95;;;28.80;52.30;;;;;;5114155;28;20036;-82
2023/07/17 04:21:08;;;;;;;5.07;3.40;;;28.80;52.20;;;;;;5113356;28;20042;-81
2023/07/17 04:23:34;;;;;;;4.40;3.97;;;29.10;55.90;;;;;;5112323;28;20398;-78
2023/07/17 04:26:02;;;;;;;7.07;3.22;;;29.70;56.50;;;;;;5112536;28;20150;-81
2023/07/17 04:28:28;;;;;;;17.98;5.40;;;29.90;57.10;;;;;;5114885;28;20035;-79
2023/07/17 04:30:55;;;;;;;12.20;4.82;;;30.00;54.60;;;;;;5113502;28;20131;-80
2023/07/17 04:33:21;;;;;;;6.13;3.70;;;29.90;53.20;;;;;;5081854;28;20445;-88
2023/07/17 04:35:47;;;;;;;5.57;3.30;;;29.60;53.40;;;;;;5113382;28;20035;-84
2023/07/17 04:38:13;;;;;;;6.40;3.95;;;29.50;53.60;;;;;;5113646;28;20084;-83
2023/07/17 04:40:39;;;;;;;3.30;3.00;;;29.60;53.60;;;;;;5113795;28;20032;-81
2023/07/17 04:43:07;;;;;;;5.10;3.42;;;29.50;53.70;;;;;;5098705;28;20040;-81
2023/07/17 04:45:34;;;;;;;5.28;3.50;;;29.40;54.00;;;;;;5114562;28;20047;-82
2023/07/17 04:48:07;;;;;;;;;;;29.40;54.00;;;;;;5114399;28;20040;-85
2023/07/17 04:50:33;;;;;;;5.60;3.45;;;29.40;54.20;;;;;;5112733;28;19912;-85
2023/07/17 04:53:00;;;;;;;3.85;3.53;;;29.20;54.50;;;;;;5096507;28;20035;-81
2023/07/17 04:55:26;;;;;;;6.80;3.45;;;29.40;54.80;;;;;;5113689;28;20063;-79
2023/07/17 04:57:52;;;;;;;3.55;3.03;;;29.40;54.60;;;;;;5113103;28;20030;-75
2023/07/17 05:00:21;;;;;;;3.75;3.03;;;29.40;54.70;;;;;;5111605;28;20044;-75
2023/07/17 05:02:48;;;;;;;4.10;3.25;;;29.30;54.00;;;;;;5111824;28;20038;-74
2023/07/17 05:05:14;;;;;;;4.18;3.08;;;29.30;53.40;;;;;;5094558;28;20122;-80
2023/07/17 05:07:41;;;;;;;4.13;3.15;;;29.30;52.70;;;;;;5112835;28;20043;-83
2023/07/17 05:10:10;;;;;;;5.65;3.50;;;29.40;52.50;;;;;;5094909;28;20118;-81
2023/07/17 05:12:38;;;;;;;5.50;3.25;;;29.30;52.50;;;;;;5111483;28;20483;-77
2023/07/17 05:15:05;;;;;;;6.40;3.15;;;29.20;52.10;;;;;;5111642;28;20039;-77
2023/07/17 05:17:31;;;;;;;6.72;3.33;;;29.30;52.40;;;;;;5111488;28;20357;-79
2023/07/17 05:19:57;;;;;;;3.88;3.17;;;29.20;52.40;;;;;;5130597;27;20141;-78
2023/07/17 05:22:26;;;;;;;6.80;3.70;;;29.40;52.00;;;;;;5113655;27;20129;-78
2023/07/17 05:24:52;;;;;;;3.28;3.00;;;29.40;52.00;;;;;;5113147;27;20403;-75
2023/07/17 05:27:19;;;;;;;5.03;3.42;;;29.40;52.30;;;;;;5113534;27;20433;-78
2023/07/17 05:29:45;;;;;;;4.30;3.50;;;29.20;53.30;;;;;;5130665;27;20256;-77
2023/07/17 05:32:13;;;;;;;4.20;3.55;;;29.30;53.60;;;;;;5113572;27;20077;-76
2023/07/17 05:34:39;;;;;;;7.93;4.03;;;29.30;52.80;;;;;;5113347;27;20096;-77
2023/07/17 05:37:05;;;;;;;7.68;3.53;;;29.30;54.30;;;;;;5113414;27;20039;-78
2023/07/17 05:39:32;;;;;;;4.28;3.38;;;29.40;53.60;;;;;;5096204;27;20078;-78
2023/07/17 05:41:58;;;;;;;4.75;4.22;;;29.30;52.80;;;;;;5113401;27;20041;-77
2023/07/17 05:44:25;;;;;;;7.43;4.05;;;29.40;53.50;;;;;;5112836;27;20038;-75
2023/07/17 05:46:51;;;;;;;4.00;3.53;;;29.50;53.00;;;;;;5113287;27;20184;-80
2023/07/17 05:49:17;;;;;;;6.45;3.75;;;29.40;53.20;;;;;;5112802;27;20113;-80
2023/07/17 05:51:45;;;;;;;6.63;3.85;;;29.40;53.30;;;;;;5094918;28;20425;-83
2023/07/17 05:54:11;;;;;;;7.55;4.57;;;29.60;55.60;;;;;;5112093;28;20039;-78
2023/07/17 05:56:37;;;;;;;6.63;4.03;;;29.50;56.10;;;;;;5112892;28;20131;-78
2023/07/17 05:59:03;;;;;;;5.63;3.97;;;29.60;56.50;;;;;;5111630;28;20116;-80
2023/07/17 06:01:29;;;;;;;8.73;4.25;;;29.50;55.20;;;;;;5111220;28;20071;-85
2023/07/17 06:03:55;;;;;;;6.90;3.67;;;29.50;54.10;;;;;;5112178;28;20027;-80
2023/07/17 06:06:21;;;;;;;5.10;3.92;;;29.60;52.90;;;;;;5110850;28;20046;-78
2023/07/17 06:08:47;;;;;;;6.15;4.00;;;29.50;52.50;;;;;;5112084;28;20491;-81
2023/07/17 06:11:13;;;;;;;6.95;3.92;;;29.50;52.10;;;;;;5111002;28;20040;-79
2023/07/17 06:13:39;;;;;;;8.57;4.63;;;29.50;53.30;;;;;;5112058;28;20027;-79
2023/07/17 06:16:05;;;;;;;4.47;3.90;;;29.50;53.30;;;;;;5111752;28;20031;-75
2023/07/17 06:18:31;;;;;;;10.15;4.85;;;29.60;53.30;;;;;;5103025;28;20059;-81
2023/07/17 06:20:57;;;;;;;10.20;3.67;;;29.50;53.20;;;;;;5089352;28;20076;-75
2023/07/17 06:23:23;;;;;;;8.68;4.05;;;29.50;53.00;;;;;;5110468;28;20039;-77
2023/07/17 06:25:49;;;;;;;3.53;2.95;;;29.60;53.00;;;;;;5110101;28;20036;-75
2023/07/17 06:28:15;;;;;;;6.25;4.30;;;29.60;53.00;;;;;;5110529;28;20097;-74
2023/07/17 06:30:44;;;;;;;6.43;3.45;;;29.60;53.00;;;;;;5111477;28;20036;-74
2023/07/17 06:33:13;;;;;;;4.13;2.78;;;29.60;53.10;;;;;;5111998;28;20074;-76
2023/07/17 06:35:45;;;;;;;8.45;3.75;;;29.60;53.30;;;;;;5096501;28;20472;-75
2023/07/17 06:38:11;;;;;;;5.60;4.07;;;29.60;53.30;;;;;;5072805;28;20044;-75
2023/07/17 06:40:38;;;;;;;6.78;3.75;;;29.60;53.20;;;;;;5094234;28;20446;-74
2023/07/17 06:43:04;;;;;;;3.47;2.97;;;29.60;53.10;;;;;;5112162;28;20047;-76
2023/07/17 06:45:30;;;;;;;4.07;3.67;;;29.60;53.00;;;;;;5111676;28;20044;-74
2023/07/17 06:47:56;;;;;;;4.30;3.50;;;29.60;53.00;;;;;;5111008;28;20096;-73
2023/07/17 06:50:22;;;;;;;6.47;3.22;;;29.60;53.20;;;;;;5111395;28;20405;-73
2023/07/17 06:52:48;;;;;;;4.55;3.28;;;29.80;53.30;;;;;;5108771;28;20031;-76
2023/07/17 06:55:14;;;;;;;8.45;3.78;;;29.50;53.30;;;;;;5111364;28;20406;-75
2023/07/17 06:57:40;;;;;;;5.32;3.47;;;29.60;53.50;;;;;;5111217;28;20023;-77
2023/07/17 07:00:07;;;;;;;6.30;3.83;;;29.50;53.50;;;;;;5113011;28;20076;-78
2023/07/17 07:02:34;;;;;;;4.82;3.30;;;29.70;53.30;;;;;;5115504;28;20582;-77
2023/07/17 07:05:00;;;;;;;4.78;3.75;;;29.60;52.80;;;;;;5115808;28;20383;-78
2023/07/17 07:07:26;;;;;;;8.45;3.95;;;29.50;52.40;;;;;;5114192;28;20051;-78
2023/07/17 07:09:52;;;;;;;4.95;3.60;;;29.40;52.10;;;;;;5114675;28;20032;-80
2023/07/17 07:12:18;;;;;;;4.22;3.42;;;29.50;52.20;;;;;;5114615;28;20024;-79
2023/07/17 07:14:44;;;;;;;6.22;3.58;;;29.50;52.90;;;;;;5113672;28;20057;-76
2023/07/17 07:17:10;;;;;;;5.28;3.85;;;29.60;52.80;;;;;;5115104;28;20027;-76
2023/07/17 07:19:36;;;;;;;8.20;3.88;;;29.50;52.90;;;;;;5115199;28;20445;-76
2023/07/17 07:22:02;;;;;;;6.38;3.58;;;29.50;53.00;;;;;;5114893;28;20039;-79
2023/07/17 07:24:28;;;;;;;9.95;3.80;;;29.40;53.00;;;;;;5113634;28;20092;-77
2023/07/17 07:26:54;;;;;;;4.55;3.45;;;29.40;53.00;;;;;;5114517;28;20088;-80
2023/07/17 07:29:20;;;;;;;5.00;3.53;;;29.40;53.10;;;;;;5114621;28;20035;-78
2023/07/17 07:31:46;;;;;;;4.65;3.63;;;29.40;53.30;;;;;;5114915;28;20035;-78
2023/07/17 07:34:12;;;;;;;6.07;3.42;;;29.60;53.40;;;;;;5096461;28;20032;-83
2023/07/17 07:36:38;;;;;;;7.32;4.00;;;29.50;53.20;;;;;;5113678;28;20031;-82
2023/07/17 07:39:05;;;;;;;7.28;3.97;;;29.40;53.50;;;;;;5114105;28;20081;-82
2023/07/17 07:41:33;;;;;;;4.57;3.30;;;29.40;53.50;;;;;;5113786;28;20036;-75
2023/07/17 07:43:59;;;;;;;6.88;3.33;;;29.40;54.00;;;;;;5114881;28;20031;-75
2023/07/17 07:46:25;;;;;;;6.32;3.65;;;29.60;53.90;;;;;;5114328;28;20058;-81
2023/07/17 07:48:51;;;;;;;13.40;3.65;;;29.30;53.80;;;;;;5114803;28;20039;-78
2023/07/17 07:51:17;;;;;;;8.82;3.85;;;29.40;52.70;;;;;;5111986;28;20055;-79
2023/07/17 07:53:43;;;;;;;44.72;23.45;;;29.50;51.70;;;;;;5114428;28;20035;-79
2023/07/17 07:56:09;;;;;;;6.47;4.13;;;29.40;51.70;;;;;;5114322;28;20035;-78
2023/07/17 07:58:35;;;;;;;33.58;24.23;;;29.40;50.80;;;;;;5114202;28;20023;-86
2023/07/17 08:01:01;;;;;;;6.15;3.85;;;29.50;51.40;;;;;;5114488;28;20498;-82
2023/07/17 08:03:27;;;;;;;12.18;8.65;;;29.30;50.50;;;;;;5114357;28;20060;-80
2023/07/17 08:05:55;;;;;;;10.15;6.05;;;29.40;50.40;;;;;;5114399;27;20027;-78
2023/07/17 08:08:21;;;;;;;6.32;4.15;;;29.40;50.50;;;;;;5114125;28;20031;-79
2023/07/17 08:10:47;;;;;;;5.43;3.72;;;29.50;50.40;;;;;;5114563;28;20032;-82
2023/07/17 08:13:12;;;;;;;6.15;3.60;;;29.40;50.60;;;;;;5114189;27;20413;-78
2023/07/17 08:15:38;;;;;;;6.72;4.85;;;29.40;49.30;;;;;;5113966;28;20028;-79
2023/07/17 08:18:04;;;;;;;6.57;3.80;;;29.40;49.90;;;;;;5113905;28;20034;-77
2023/07/17 08:20:30;;;;;;;4.82;3.42;;;29.40;49.30;;;;;;5108183;28;20040;-76
2023/07/17 08:22:56;;;;;;;3.95;3.15;;;29.30;49.00;;;;;;5093795;28;20047;-78
2023/07/17 08:25:23;;;;;;;7.07;3.58;;;29.40;49.20;;;;;;5095500;28;20031;-75
2023/07/17 08:27:49;;;;;;;7.63;4.05;;;29.30;50.00;;;;;;5113765;28;20034;-74
2023/07/17 08:30:15;;;;;;;6.55;2.80;;;29.20;49.40;;;;;;5113273;28;20031;-75
2023/07/17 08:32:41;;;;;;;3.72;3.15;;;29.20;49.30;;;;;;5113491;28;20027;-75
2023/07/17 08:35:08;;;;;;;6.22;3.15;;;29.20;49.10;;;;;;5113155;28;20027;-75
2023/07/17 08:37:34;;;;;;;6.22;3.40;;;29.40;49.40;;;;;;5112116;28;20077;-74
2023/07/17 08:40:00;;;;;;;4.18;3.10;;;29.30;49.00;;;;;;5113246;28;20028;-73
2023/07/17 08:42:26;;;;;;;4.13;3.20;;;29.40;49.10;;;;;;5113082;28;20525;-72
2023/07/17 08:44:53;;;;;;;5.82;4.07;;;29.30;49.10;;;;;;5112966;28;20036;-72
2023/07/17 08:47:20;;;;;;;4.38;3.78;;;29.30;49.20;;;;;;5112640;28;20054;-73
2023/07/17 08:49:48;;;;;;;4.57;3.33;;;29.30;49.20;;;;;;5112954;27;20061;-72
2023/07/17 08:52:15;;;;;;;4.47;3.03;;;29.30;49.20;;;;;;5112866;28;20066;-72
2023/07/17 08:54:41;;;;;;;3.03;2.72;;;29.30;49.40;;;;;;5113070;28;20031;-71
2023/07/17 08:57:08;;;;;;;7.07;3.40;;;29.40;49.50;;;;;;5112927;28;20062;-71
2023/07/17 08:59:35;;;;;;;7.07;4.35;;;29.20;49.70;;;;;;5111520;28;20441;-72
2023/07/17 09:02:03;;;;;;;6.70;4.35;;;29.30;49.80;;;;;;5111085;28;20308;-71
2023/07/17 09:04:37;;;;;;;3.97;2.97;;;29.30;49.80;;;;;;5111748;28;20040;-72
2023/07/17 09:07:03;;;;;;;9.40;3.70;;;29.30;49.80;;;;;;5112732;28;20047;-71
2023/07/17 09:09:29;;;;;;;6.22;2.88;;;29.30;49.80;;;;;;5112686;28;20498;-71
2023/07/17 09:12:09;;;;;;;4.20;3.35;;;29.20;50.50;;;;;;5112879;28;20106;-74
2023/07/17 09:14:36;;;;;;;3.42;2.08;;;29.30;51.60;;;;;;5112791;28;20142;-82
2023/07/17 09:17:04;;;;;;;6.60;3.20;;;29.30;50.70;;;;;;5112702;28;20168;-77
2023/07/17 09:19:31;;;;;;;5.78;3.70;;;29.20;51.90;;;;;;5111672;28;20471;-74
2023/07/17 09:22:05;;;;;;;125.35;39.72;;;29.60;55.40;;;;;;5112220;28;20475;-77
2023/07/17 09:24:38;;;;;;;550.30;193.27;;;29.90;56.50;;;;;;5111392;28;20032;-78
2023/07/17 09:27:08;;;;;;;433.50;170.93;;;30.50;56.10;;;;;;5112439;28;20385;-79
2023/07/17 09:29:41;;;;;;;200.77;71.25;;;30.70;53.30;;;;;;5112597;28;20043;-76
2023/07/17 09:32:15;;;;;;;43.58;20.40;;;30.60;52.60;;;;;;5112580;28;20040;-78
2023/07/17 09:34:41;;;;;;;47.63;18.13;;;30.50;53.10;;;;;;5112784;28;20143;-75
2023/07/17 09:37:11;;;;;;;38.47;16.67;;;30.30;51.50;;;;;;5092565;28;20485;-74
2023/07/17 09:39:38;;;;;;;29.42;12.65;;;30.10;51.40;;;;;;5112615;28;20038;-77
2023/07/17 09:42:04;;;;;;;47.92;18.38;;;30.20;51.40;;;;;;5112766;28;20081;-74
2023/07/17 09:44:32;;;;;;;50.08;17.50;;;30.00;51.30;;;;;;5112543;28;20119;-76
2023/07/17 09:46:58;;;;;;;50.22;18.50;;;30.10;51.20;;;;;;5111916;28;20071;-75
2023/07/17 09:49:25;;;;;;;47.28;15.80;;;30.00;51.50;;;;;;5112091;28;20087;-76
2023/07/17 09:51:51;;;;;;;47.65;15.85;;;30.00;51.50;;;;;;5112461;28;20040;-79
2023/07/17 09:54:18;;;;;;;46.97;17.80;;;29.90;50.90;;;;;;5112151;28;20031;-74
2023/07/17 09:56:45;;;;;;;57.40;17.40;;;29.90;51.00;;;;;;5112100;28;20502;-75
2023/07/17 09:59:14;;;;;;;35.20;13.32;;;29.90;51.00;;;;;;5111884;28;20118;-77
2023/07/17 10:01:45;;;;;;;39.72;14.38;;;30.00;51.60;;;;;;5111961;28;20043;-76
2023/07/17 10:04:16;;;;;;;31.90;13.00;;;29.90;51.10;;;;;;5111838;28;20027;-75
2023/07/17 10:06:44;;;;;;;34.33;13.43;;;29.80;51.20;;;;;;5111594;28;20376;-75
2023/07/17 10:09:14;;;;;;;38.22;14.05;;;29.90;51.30;;;;;;5091952;28;20067;-75
2023/07/17 10:11:41;;;;;;;43.33;13.40;;;29.80;51.30;;;;;;5111426;28;20512;-75
2023/07/17 10:14:08;;;;;;;36.33;14.00;;;29.80;51.50;;;;;;5111583;28;20516;-77
2023/07/17 10:16:34;;;;;;;47.53;17.00;;;29.80;51.80;;;;;;5111519;28;20035;-75
2023/07/17 10:19:01;;;;;;;42.00;17.70;;;29.90;55.70;;;;;;5111610;28;20074;-77
2023/07/17 10:21:27;;;;;;;52.05;16.30;;;29.90;55.90;;;;;;5110207;28;20351;-76
2023/07/17 10:23:53;;;;;;;42.38;14.70;;;29.90;54.00;;;;;;5110729;28;20028;-75
2023/07/17 10:26:20;;;;;;;39.95;13.32;;;30.00;55.10;;;;;;5111577;28;20031;-76
2023/07/17 10:28:53;;;;;;;29.33;13.90;;;30.30;57.60;;;;;;5111780;28;20479;-76
2023/07/17 10:31:23;;;;;;;29.27;12.60;;;30.40;56.80;;;;;;5111724;28;20154;-79
2023/07/17 10:33:50;;;;;;;33.30;14.13;;;30.30;54.00;;;;;;5111510;28;20027;-76
2023/07/17 10:36:18;;;;;;;34.05;13.43;;;30.20;54.00;;;;;;5112797;28;20038;-80
2023/07/17 10:38:51;;;;;;;19.67;8.23;;;30.30;54.70;;;;;;5115927;28;20039;-77
2023/07/17 10:41:17;;;;;;;25.17;9.32;;;30.40;57.00;;;;;;5114424;28;20035;-78
2023/07/17 10:43:51;;;;;;;18.00;9.07;;;30.30;55.40;;;;;;5115702;28;20387;-77
2023/07/17 10:46:17;;;;;;;23.13;9.98;;;30.30;54.40;;;;;;5115027;28;20538;-77
2023/07/17 10:48:43;;;;;;;23.92;9.27;;;30.20;54.40;;;;;;5115259;28;20057;-77
2023/07/17 10:51:09;;;;;;;23.73;10.23;;;30.30;54.00;;;;;;5113974;28;20038;-77
2023/07/17 10:53:35;;;;;;;20.98;8.43;;;30.20;53.80;;;;;;5115276;28;20077;-79
2023/07/17 10:56:01;;;;;;;23.60;10.02;;;30.20;53.80;;;;;;5114933;27;20031;-78
2023/07/17 10:58:27;;;;;;;20.98;9.60;;;30.30;57.50;;;;;;5115358;28;20027;-75
2023/07/17 11:00:55;;;;;;;23.33;10.32;;;30.40;58.80;;;;;;5115016;28;20550;-76
2023/07/17 11:03:26;;;;;;;21.75;8.80;;;30.40;60.60;;;;;;5115096;28;20074;-77
2023/07/17 11:05:55;;;;;;;19.27;8.93;;;30.50;56.30;;;;;;5113680;28;20096;-79
2023/07/17 11:08:26;;;;;;;24.95;9.40;;;30.50;55.00;;;;;;5114724;28;20031;-77
2023/07/17 11:10:53;;;;;;;18.80;9.32;;;30.30;54.70;;;;;;5115080;28;20070;-77
2023/07/17 11:13:19;;;;;;;16.65;7.97;;;30.30;54.20;;;;;;5115090;28;20035;-77
2023/07/17 11:15:45;;;;;;;29.75;11.93;;;30.20;54.00;;;;;;5113813;28;20043;-77
2023/07/17 11:18:11;;;;;;;30.63;11.52;;;30.30;55.70;;;;;;5114786;28;20027;-75
2023/07/17 11:20:37;;;;;;;22.13;10.57;;;30.40;54.40;;;;;;5115157;28;20483;-75
2023/07/17 11:23:03;;;;;;;17.38;8.70;;;30.40;54.60;;;;;;5115087;28;20118;-75
2023/07/17 11:25:32;;;;;;;11.73;7.20;;;30.40;54.00;;;;;;5114409;28;20016;-75
2023/07/17 11:28:00;;;;;;;19.70;8.35;;;30.30;53.40;;;;;;5114205;28;20488;-75
2023/07/17 11:30:28;;;;;;;12.57;7.15;;;30.30;52.70;;;;;;5114440;28;20035;-76
2023/07/17 11:32:57;;;;;;;18.73;7.70;;;30.40;52.10;;;;;;5114674;28;20071;-75
2023/07/17 11:35:44;;;;;;;12.25;7.07;;;30.20;51.50;;;;;;5114495;28;20122;-76
2023/07/17 11:38:15;;;;;;;10.95;6.15;;;30.20;51.00;;;;;;5112880;28;20031;-75
2023/07/17 11:41:02;;;;;;;13.20;6.28;;;30.10;50.50;;;;;;5114350;28;20399;-76
2023/07/17 11:43:31;;;;;;;16.48;7.70;;;30.30;50.10;;;;;;5128929;27;20051;-75
2023/07/17 11:46:02;;;;;;;12.40;7.57;;;30.20;49.70;;;;;;5112385;28;20074;-76
2023/07/17 11:48:29;;;;;;;12.88;5.93;;;30.20;49.30;;;;;;5113749;28;20032;-75
2023/07/17 11:50:56;;;;;;;10.38;6.68;;;30.20;49.00;;;;;;5114244;28;20043;-75
2023/07/17 11:53:23;;;;;;;9.75;6.13;;;30.00;48.60;;;;;;5114854;28;20039;-75
2023/07/17 11:55:49;;;;;;;12.77;6.43;;;30.10;48.30;;;;;;5113764;28;20076;-75
2023/07/17 11:58:19;;;;;;;11.73;5.38;;;30.20;48.00;;;;;;5113899;28;20024;-75
2023/07/17 12:00:49;;;;;;;11.45;5.80;;;30.10;47.90;;;;;;5113988;28;20081;-76
2023/07/17 12:03:15;;;;;;;13.35;6.10;;;30.10;47.60;;;;;;5113861;28;20519;-75
2023/07/17 12:05:41;;;;;;;10.50;6.18;;;30.00;47.50;;;;;;5114078;28;20550;-75
2023/07/17 12:08:07;;;;;;;15.70;5.95;;;30.10;47.50;;;;;;5114300;28;20170;-76
2023/07/17 12:10:35;;;;;;;9.85;6.35;;;30.00;47.30;;;;;;5113892;28;20074;-76
2023/07/17 12:13:02;;;;;;;11.45;5.65;;;30.10;47.10;;;;;;5113837;28;20032;-76
2023/07/17 12:15:29;;;;;;;11.10;5.70;;;30.00;47.00;;;;;;5112675;28;20048;-76
2023/07/17 12:17:55;;;;;;;11.77;6.10;;;30.00;46.80;;;;;;5113866;28;20070;-75
2023/07/17 12:20:22;;;;;;;10.98;5.80;;;29.90;46.10;;;;;;5114070;28;20050;-79
2023/07/17 12:22:50;;;;;;;10.98;5.35;;;29.90;46.00;;;;;;5113826;28;20526;-77
2023/07/17 12:25:16;;;;;;;10.82;6.18;;;29.90;46.20;;;;;;5113636;28;20432;-76
2023/07/17 12:27:43;;;;;;;10.82;6.20;;;30.00;46.70;;;;;;5112178;28;20043;-74
2023/07/17 12:30:09;;;;;;;11.07;5.30;;;29.90;46.10;;;;;;5113501;28;20035;-75
2023/07/17 12:32:37;;;;;;;10.93;6.20;;;29.90;46.20;;;;;;5113379;28;20031;-74
2023/07/17 12:35:05;;;;;;;11.13;5.15;;;29.90;46.40;;;;;;5112234;28;20429;-74
2023/07/17 12:37:31;;;;;;;11.32;5.50;;;29.90;46.60;;;;;;5111986;28;20063;-76
2023/07/17 12:39:58;;;;;;;8.93;4.65;;;30.00;47.40;;;;;;5113376;28;20035;-75
2023/07/17 12:42:24;;;;;;;9.30;5.32;;;29.90;47.00;;;;;;5113200;28;20035;-75